createdAt,value
2019-01-21T00:00:49.322Z,1014.96
2019-01-21T00:01:49.240Z,1015.01
2019-01-21T00:02:49.232Z,1014.99
2019-01-21T00:03:49.261Z,1014.94
2019-01-21T00:04:49.207Z,1014.99
2019-01-21T00:05:49.197Z,1014.97
2019-01-21T00:06:49.185Z,1014.97
2019-01-21T00:07:49.175Z,1014.99
2019-01-21T00:08:49.180Z,1014.95
2019-01-21T00:09:49.184Z,1014.95
2019-01-21T00:10:49.143Z,1014.97
2019-01-21T00:11:49.162Z,1014.93
2019-01-21T00:12:49.120Z,1014.94
2019-01-21T00:13:49.113Z,1014.99
2019-01-21T00:14:49.100Z,1014.96
2019-01-21T00:15:49.142Z,1014.98
2019-01-21T00:16:49.081Z,1014.97
2019-01-21T00:17:49.067Z,1014.99
2019-01-21T00:18:49.057Z,1014.98
2019-01-21T00:19:49.076Z,1015.03
2019-01-21T00:20:49.035Z,1014.97
2019-01-21T00:21:49.025Z,1015.02
2019-01-21T00:22:49.012Z,1015.03
2019-01-21T00:23:49.003Z,1015.02
2019-01-21T00:24:49.020Z,1015.06
2019-01-21T00:25:48.980Z,1015.00
2019-01-21T00:26:48.971Z,1015.05
2019-01-21T00:27:48.959Z,1015.04
2019-01-21T00:28:48.978Z,1015.02
2019-01-21T00:29:48.937Z,1015.01
2019-01-21T00:30:48.927Z,1015.00
2019-01-21T00:31:48.946Z,1015.00
2019-01-21T00:32:48.904Z,1014.99
2019-01-21T00:33:48.895Z,1015.01
2019-01-21T00:34:48.884Z,1015.02
2019-01-21T00:35:48.874Z,1015.04
2019-01-21T00:36:48.892Z,1015.05
2019-01-21T00:37:48.852Z,1015.07
2019-01-21T00:38:48.840Z,1015.14
2019-01-21T00:39:48.829Z,1015.17
2019-01-21T00:40:48.848Z,1015.15
2019-01-21T00:41:48.811Z,1015.15
2019-01-21T00:42:48.798Z,1015.13
2019-01-21T00:43:48.789Z,1015.18
2019-01-21T00:44:48.779Z,1015.15
2019-01-21T00:45:48.798Z,1015.14
2019-01-21T00:46:48.754Z,1015.17
2019-01-21T00:47:48.743Z,1015.16
2019-01-21T00:48:48.765Z,1015.15
2019-01-21T00:49:48.722Z,1015.18
2019-01-21T00:50:48.712Z,1015.13
2019-01-21T00:51:48.715Z,1015.19
2019-01-21T00:52:48.689Z,1015.19
2019-01-21T00:53:48.688Z,1015.16
2019-01-21T00:54:48.702Z,1015.13
2019-01-21T00:55:48.658Z,1015.10
2019-01-21T00:56:48.682Z,1015.07
2019-01-21T00:57:48.643Z,1015.11
2019-01-21T00:58:48.625Z,1015.13
2019-01-21T00:59:48.617Z,1015.10
2019-01-21T01:00:48.604Z,1015.13
2019-01-21T01:01:48.592Z,1015.12
2019-01-21T01:02:48.610Z,1015.05
2019-01-21T01:03:48.571Z,1015.09
2019-01-21T01:04:48.561Z,1015.04
2019-01-21T01:05:48.549Z,1015.06
2019-01-21T01:06:48.570Z,1015.08
2019-01-21T01:07:48.527Z,1015.05
2019-01-21T01:08:48.547Z,1015.06
2019-01-21T01:09:48.536Z,1015.09
2019-01-21T01:10:48.495Z,1015.09
2019-01-21T01:11:48.485Z,1015.14
2019-01-21T01:12:48.473Z,1015.05
2019-01-21T01:13:48.467Z,1015.13
2019-01-21T01:14:48.454Z,1015.17
2019-01-21T01:15:48.486Z,1015.13
2019-01-21T01:16:48.432Z,1015.20
2019-01-21T01:17:48.421Z,1015.14
2019-01-21T01:18:48.410Z,1015.15
2019-01-21T01:19:48.398Z,1015.12
2019-01-21T01:20:48.387Z,1015.16
2019-01-21T01:21:48.408Z,1015.20
2019-01-21T01:22:48.365Z,1015.16
2019-01-21T01:23:48.355Z,1015.15
2019-01-21T01:24:48.344Z,1015.17
2019-01-21T01:25:48.333Z,1015.14
2019-01-21T01:26:48.323Z,1015.19
2019-01-21T01:27:48.348Z,1015.18
2019-01-21T01:28:48.302Z,1015.18
2019-01-21T01:29:48.290Z,1015.20
2019-01-21T01:30:48.279Z,1015.17
2019-01-21T01:31:48.268Z,1015.19
2019-01-21T01:32:48.257Z,1015.20
2019-01-21T01:33:48.279Z,1015.30
2019-01-21T01:34:48.251Z,1015.22
2019-01-21T01:35:48.225Z,1015.24
2019-01-21T01:36:48.215Z,1015.31
2019-01-21T01:37:48.205Z,1015.30
2019-01-21T01:38:48.196Z,1015.23
2019-01-21T01:39:48.212Z,1015.27
2019-01-21T01:40:48.173Z,1015.27
2019-01-21T01:41:48.196Z,1015.26
2019-01-21T01:42:48.181Z,1015.25
2019-01-21T01:43:48.139Z,1015.32
2019-01-21T01:44:48.128Z,1015.30
2019-01-21T01:45:48.152Z,1015.32
2019-01-21T01:46:48.106Z,1015.32
2019-01-21T01:47:48.100Z,1015.37
2019-01-21T01:48:48.117Z,1015.35
2019-01-21T01:49:48.076Z,1015.40
2019-01-21T01:50:48.066Z,1015.44
2019-01-21T01:51:48.055Z,1015.49
2019-01-21T01:52:48.044Z,1015.49
2019-01-21T01:53:48.035Z,1015.46
2019-01-21T01:54:48.067Z,1015.47
2019-01-21T01:55:48.011Z,1015.49
2019-01-21T01:56:48.004Z,1015.46
2019-01-21T01:57:47.991Z,1015.49
2019-01-21T01:58:47.982Z,1015.45
2019-01-21T01:59:47.973Z,1015.39
2019-01-21T02:00:47.995Z,1015.44
2019-01-21T02:01:47.949Z,1015.40
2019-01-21T02:02:47.940Z,1015.43
2019-01-21T02:03:47.927Z,1015.42
2019-01-21T02:04:47.914Z,1015.43
2019-01-21T02:05:47.905Z,1015.42
2019-01-21T02:06:47.924Z,1015.44
2019-01-21T02:07:47.883Z,1015.49
2019-01-21T02:08:47.878Z,1015.43
2019-01-21T02:09:47.893Z,1015.42
2019-01-21T02:10:47.851Z,1015.45
2019-01-21T02:11:47.841Z,1015.41
2019-01-21T02:12:47.834Z,1015.39
2019-01-21T02:13:47.820Z,1015.41
2019-01-21T02:14:47.808Z,1015.36
2019-01-21T02:15:47.828Z,1015.39
2019-01-21T02:16:47.786Z,1015.36
2019-01-21T02:17:52.046Z,1015.42
2019-01-21T02:18:47.795Z,1015.43
2019-01-21T02:19:47.754Z,1015.42
2019-01-21T02:20:47.751Z,1015.44
2019-01-21T02:21:47.735Z,1015.39
2019-01-21T02:22:47.780Z,1015.40
2019-01-21T02:23:47.717Z,1015.42
2019-01-21T02:24:47.701Z,1015.39
2019-01-21T02:25:47.719Z,1015.39
2019-01-21T02:26:47.709Z,1015.38
2019-01-21T02:27:47.668Z,1015.34
2019-01-21T02:28:47.658Z,1015.30
2019-01-21T02:29:47.646Z,1015.33
2019-01-21T02:30:47.639Z,1015.34
2019-01-21T02:31:47.626Z,1015.37
2019-01-21T02:32:47.644Z,1015.34
2019-01-21T02:33:47.608Z,1015.36
2019-01-21T02:34:47.624Z,1015.33
2019-01-21T02:35:47.583Z,1015.39
2019-01-21T02:36:47.571Z,1015.41
2019-01-21T02:37:47.563Z,1015.38
2019-01-21T02:38:47.556Z,1015.40
2019-01-21T02:39:47.543Z,1015.39
2019-01-21T02:40:47.560Z,1015.40
2019-01-21T02:41:47.521Z,1015.40
2019-01-21T02:42:47.507Z,1015.44
2019-01-21T02:43:47.497Z,1015.41
2019-01-21T02:44:47.487Z,1015.41
2019-01-21T02:45:47.476Z,1015.41
2019-01-21T02:46:47.497Z,1015.46
2019-01-21T02:47:47.483Z,1015.40
2019-01-21T02:48:47.443Z,1015.44
2019-01-21T02:49:47.433Z,1015.43
2019-01-21T02:50:47.422Z,1015.44
2019-01-21T02:51:47.440Z,1015.41
2019-01-21T02:52:47.403Z,1015.46
2019-01-21T02:53:47.420Z,1015.42
2019-01-21T02:54:47.379Z,1015.41
2019-01-21T02:55:47.371Z,1015.41
2019-01-21T02:56:47.357Z,1015.39
2019-01-21T02:57:47.376Z,1015.40
2019-01-21T02:58:47.336Z,1015.38
2019-01-21T02:59:47.326Z,1015.39
2019-01-21T03:00:47.314Z,1015.42
2019-01-21T03:01:47.345Z,1015.40
2019-01-21T03:02:47.292Z,1015.36
2019-01-21T03:03:47.326Z,1015.40
2019-01-21T03:04:47.271Z,1015.40
2019-01-21T03:05:47.303Z,1015.42
2019-01-21T03:06:47.250Z,1015.41
2019-01-21T03:07:47.242Z,1015.42
2019-01-21T03:08:47.228Z,1015.45
2019-01-21T03:09:47.263Z,1015.44
2019-01-21T03:10:47.209Z,1015.48
2019-01-21T03:11:47.198Z,1015.43
2019-01-21T03:12:47.227Z,1015.42
2019-01-21T03:13:47.175Z,1015.47
2019-01-21T03:14:47.167Z,1015.44
2019-01-21T03:15:47.152Z,1015.50
2019-01-21T03:16:47.184Z,1015.53
2019-01-21T03:17:47.174Z,1015.49
2019-01-21T03:18:47.120Z,1015.52
2019-01-21T03:19:47.120Z,1015.49
2019-01-21T03:20:47.138Z,1015.53
2019-01-21T03:21:47.088Z,1015.52
2019-01-21T03:22:47.083Z,1015.55
2019-01-21T03:23:47.070Z,1015.54
2019-01-21T03:24:47.096Z,1015.55
2019-01-21T03:25:47.046Z,1015.57
2019-01-21T03:26:47.037Z,1015.54
2019-01-21T03:27:47.025Z,1015.55
2019-01-21T03:28:47.057Z,1015.54
2019-01-21T03:29:47.003Z,1015.51
2019-01-21T03:30:46.994Z,1015.51
2019-01-21T03:31:46.991Z,1015.54
2019-01-21T03:32:46.978Z,1015.52
2019-01-21T03:33:46.965Z,1015.54
2019-01-21T03:34:46.993Z,1015.52
2019-01-21T03:35:46.942Z,1015.55
2019-01-21T03:36:46.927Z,1015.58
2019-01-21T03:37:46.957Z,1015.63
2019-01-21T03:38:46.906Z,1015.65
2019-01-21T03:39:46.897Z,1015.63
2019-01-21T03:40:46.926Z,1015.65
2019-01-21T03:41:46.887Z,1015.67
2019-01-21T03:42:46.902Z,1015.63
2019-01-21T03:43:46.853Z,1015.64
2019-01-21T03:44:46.843Z,1015.64
2019-01-21T03:45:46.831Z,1015.65
2019-01-21T03:46:46.822Z,1015.68
2019-01-21T03:47:46.817Z,1015.62
2019-01-21T03:48:46.837Z,1015.64
2019-01-21T03:49:46.831Z,1015.69
2019-01-21T03:50:46.776Z,1015.65
2019-01-21T03:51:46.770Z,1015.61
2019-01-21T03:52:46.758Z,1015.62
2019-01-21T03:53:46.790Z,1015.67
2019-01-21T03:54:46.735Z,1015.73
2019-01-21T03:55:46.763Z,1015.75
2019-01-21T03:56:46.717Z,1015.72
2019-01-21T03:57:46.702Z,1015.73
2019-01-21T03:58:46.691Z,1015.77
2019-01-21T03:59:46.727Z,1015.77
2019-01-21T04:00:46.670Z,1015.72
2019-01-21T04:01:46.663Z,1015.77
2019-01-21T04:02:46.647Z,1015.76
2019-01-21T04:03:46.639Z,1015.77
2019-01-21T04:04:46.665Z,1015.77
2019-01-21T04:05:46.625Z,1015.77
2019-01-21T04:06:46.604Z,1015.78
2019-01-21T04:07:46.595Z,1015.77
2019-01-21T04:08:46.591Z,1015.76
2019-01-21T04:09:46.574Z,1015.80
2019-01-21T04:10:46.613Z,1015.79
2019-01-21T04:11:46.551Z,1015.73
2019-01-21T04:12:46.541Z,1015.77
2019-01-21T04:13:46.535Z,1015.73
2019-01-21T04:14:46.518Z,1015.75
2019-01-21T04:15:46.507Z,1015.72
2019-01-21T04:16:46.540Z,1015.72
2019-01-21T04:17:46.537Z,1015.73
2019-01-21T04:18:46.486Z,1015.75
2019-01-21T04:19:46.466Z,1015.74
2019-01-21T04:20:46.461Z,1015.71
2019-01-21T04:21:46.447Z,1015.76
2019-01-21T04:22:46.432Z,1015.77
2019-01-21T04:23:46.478Z,1015.75
2019-01-21T04:24:46.412Z,1015.75
2019-01-21T04:25:46.401Z,1015.74
2019-01-21T04:26:46.391Z,1015.69
2019-01-21T04:27:46.380Z,1015.71
2019-01-21T04:28:46.369Z,1015.68
2019-01-21T04:29:46.396Z,1015.70
2019-01-21T04:30:46.348Z,1015.66
2019-01-21T04:31:46.335Z,1015.68
2019-01-21T04:32:46.343Z,1015.72
2019-01-21T04:33:46.313Z,1015.69
2019-01-21T04:34:46.306Z,1015.71
2019-01-21T04:35:46.338Z,1015.71
2019-01-21T04:36:46.282Z,1015.69
2019-01-21T04:37:46.271Z,1015.64
2019-01-21T04:38:46.262Z,1015.66
2019-01-21T04:39:46.297Z,1015.69
2019-01-21T04:40:46.239Z,1015.64
2019-01-21T04:41:46.233Z,1015.70
2019-01-21T04:42:46.245Z,1015.68
2019-01-21T04:43:46.206Z,1015.68
2019-01-21T04:44:46.200Z,1015.69
2019-01-21T04:45:46.233Z,1015.64
2019-01-21T04:46:46.178Z,1015.70
2019-01-21T04:47:46.171Z,1015.71
2019-01-21T04:48:46.156Z,1015.68
2019-01-21T04:49:46.144Z,1015.67
2019-01-21T04:50:46.177Z,1015.73
2019-01-21T04:51:46.121Z,1015.71
2019-01-21T04:52:46.169Z,1015.69
2019-01-21T04:53:46.102Z,1015.69
2019-01-21T04:54:46.140Z,1015.69
2019-01-21T04:55:46.144Z,1015.70
2019-01-21T04:56:46.069Z,1015.71
2019-01-21T04:57:46.099Z,1015.62
2019-01-21T04:58:47.195Z,1015.60
2019-01-21T04:59:46.044Z,1015.61
2019-01-21T05:00:46.027Z,1015.59
2019-01-21T05:01:46.053Z,1015.59
2019-01-21T05:02:46.003Z,1015.59
2019-01-21T05:03:45.993Z,1015.53
2019-01-21T05:04:46.026Z,1015.58
2019-01-21T05:05:45.971Z,1015.56
2019-01-21T05:06:45.961Z,1015.58
2019-01-21T05:07:45.950Z,1015.55
2019-01-21T05:08:45.940Z,1015.57
2019-01-21T05:09:45.931Z,1015.55
2019-01-21T05:10:45.997Z,1015.50
2019-01-21T05:11:45.915Z,1015.54
2019-01-21T05:12:45.940Z,1015.53
2019-01-21T05:13:45.927Z,1015.53
2019-01-21T05:14:45.874Z,1015.49
2019-01-21T05:15:45.883Z,1015.51
2019-01-21T05:16:45.854Z,1015.53
2019-01-21T05:17:45.911Z,1015.51
2019-01-21T05:18:45.832Z,1015.54
2019-01-21T05:19:45.870Z,1015.54
2019-01-21T05:20:45.813Z,1015.55
2019-01-21T05:21:45.801Z,1015.52
2019-01-21T05:22:45.789Z,1015.54
2019-01-21T05:23:45.778Z,1015.54
2019-01-21T05:24:45.768Z,1015.51
2019-01-21T05:25:45.811Z,1015.50
2019-01-21T05:26:45.745Z,1015.58
2019-01-21T05:27:45.735Z,1015.59
2019-01-21T05:28:45.724Z,1015.61
2019-01-21T05:29:45.718Z,1015.64
2019-01-21T05:30:45.704Z,1015.59
2019-01-21T05:31:45.734Z,1015.61
2019-01-21T05:32:45.681Z,1015.62
2019-01-21T05:33:45.673Z,1015.64
2019-01-21T05:34:45.659Z,1015.63
2019-01-21T05:35:45.650Z,1015.61
2019-01-21T05:36:45.681Z,1015.63
2019-01-21T05:37:45.625Z,1015.63
2019-01-21T05:38:45.618Z,1015.66
2019-01-21T05:39:45.606Z,1015.64
2019-01-21T05:40:45.644Z,1015.59
2019-01-21T05:41:45.586Z,1015.60
2019-01-21T05:42:45.573Z,1015.58
2019-01-21T05:43:45.605Z,1015.57
2019-01-21T05:44:45.553Z,1015.60
2019-01-21T05:45:45.541Z,1015.65
2019-01-21T05:46:45.534Z,1015.62
2019-01-21T05:47:45.576Z,1015.60
2019-01-21T05:48:49.017Z,1015.67
2019-01-21T05:49:45.500Z,1015.65
2019-01-21T05:50:45.492Z,1015.68
2019-01-21T05:51:45.477Z,1015.65
2019-01-21T05:52:45.467Z,1015.64
2019-01-21T05:53:45.496Z,1015.67
2019-01-21T05:54:45.444Z,1015.68
2019-01-21T05:55:45.435Z,1015.68
2019-01-21T05:56:45.425Z,1015.70
2019-01-21T05:57:45.414Z,1015.68
2019-01-21T05:58:45.427Z,1015.76
2019-01-21T05:59:45.435Z,1015.74
2019-01-21T06:00:45.380Z,1015.75
2019-01-21T06:01:45.372Z,1015.76
2019-01-21T06:02:45.374Z,1015.72
2019-01-21T06:03:45.353Z,1015.75
2019-01-21T06:04:45.384Z,1015.73
2019-01-21T06:05:45.331Z,1015.73
2019-01-21T06:06:45.326Z,1015.75
2019-01-21T06:07:45.356Z,1015.77
2019-01-21T06:08:45.300Z,1015.74
2019-01-21T06:09:45.347Z,1015.79
2019-01-21T06:10:45.282Z,1015.77
2019-01-21T06:11:45.286Z,1015.83
2019-01-21T06:12:45.255Z,1015.85
2019-01-21T06:13:45.248Z,1015.81
2019-01-21T06:14:45.233Z,1015.83
2019-01-21T06:15:45.264Z,1015.81
2019-01-21T06:16:45.248Z,1015.83
2019-01-21T06:17:45.203Z,1015.88
2019-01-21T06:18:45.193Z,1015.87
2019-01-21T06:19:45.191Z,1015.91
2019-01-21T06:20:45.171Z,1015.92
2019-01-21T06:21:45.207Z,1015.95
2019-01-21T06:22:45.149Z,1015.95
2019-01-21T06:23:45.147Z,1015.93
2019-01-21T06:24:45.123Z,1015.88
2019-01-21T06:25:45.134Z,1015.92
2019-01-21T06:26:45.145Z,1015.85
2019-01-21T06:27:45.096Z,1015.87
2019-01-21T06:28:45.083Z,1015.85
2019-01-21T06:29:45.072Z,1015.84
2019-01-21T06:30:45.061Z,1015.81
2019-01-21T06:31:45.054Z,1015.78
2019-01-21T06:32:45.107Z,1015.79
2019-01-21T06:33:45.026Z,1015.81
2019-01-21T06:34:45.036Z,1015.85
2019-01-21T06:35:45.010Z,1015.82
2019-01-21T06:36:44.996Z,1015.92
2019-01-21T06:37:45.032Z,1015.85
2019-01-21T06:38:44.993Z,1015.86
2019-01-21T06:39:44.972Z,1015.85
2019-01-21T06:40:44.957Z,1015.87
2019-01-21T06:41:44.947Z,1015.87
2019-01-21T06:42:44.934Z,1015.85
2019-01-21T06:43:44.972Z,1015.85
2019-01-21T06:44:44.952Z,1015.84
2019-01-21T06:45:44.902Z,1015.88
2019-01-21T06:46:44.896Z,1015.91
2019-01-21T06:47:44.886Z,1015.90
2019-01-21T06:48:44.868Z,1015.87
2019-01-21T06:49:44.864Z,1015.85
2019-01-21T06:50:44.901Z,1015.85
2019-01-21T06:51:44.855Z,1015.87
2019-01-21T06:52:44.825Z,1015.92
2019-01-21T06:53:44.821Z,1015.95
2019-01-21T06:54:44.806Z,1015.92
2019-01-21T06:55:44.796Z,1015.97
2019-01-21T06:56:47.611Z,1015.99
2019-01-21T06:57:44.813Z,1015.98
2019-01-21T06:58:44.771Z,1016.04
2019-01-21T06:59:44.762Z,1016.01
2019-01-21T07:00:44.745Z,1016.07
2019-01-21T07:01:44.761Z,1016.04
2019-01-21T07:02:44.740Z,1016.14
2019-01-21T07:03:44.776Z,1016.17
2019-01-21T07:04:44.712Z,1016.20
2019-01-21T07:05:44.747Z,1016.18
2019-01-21T07:06:44.732Z,1016.16
2019-01-21T07:07:44.669Z,1016.15
2019-01-21T07:08:44.688Z,1016.11
2019-01-21T07:09:44.646Z,1016.15
2019-01-21T07:10:44.635Z,1016.11
2019-01-21T07:11:44.698Z,1016.17
2019-01-21T07:12:44.622Z,1016.12
2019-01-21T07:13:44.625Z,1016.19
2019-01-21T07:14:44.604Z,1016.19
2019-01-21T07:15:44.577Z,1016.22
2019-01-21T07:16:44.593Z,1016.24
2019-01-21T07:17:44.600Z,1016.17
2019-01-21T07:18:44.615Z,1016.15
2019-01-21T07:19:46.262Z,1016.17
2019-01-21T07:20:44.595Z,1016.14
2019-01-21T07:21:44.522Z,1016.21
2019-01-21T07:22:44.515Z,1016.19
2019-01-21T07:23:44.533Z,1016.20
2019-01-21T07:24:44.487Z,1016.18
2019-01-21T07:25:44.494Z,1016.26
2019-01-21T07:26:44.595Z,1016.24
2019-01-21T07:27:44.482Z,1016.30
2019-01-21T07:28:44.568Z,1016.29
2019-01-21T07:29:44.487Z,1016.28
2019-01-21T07:30:44.431Z,1016.26
2019-01-21T07:31:44.418Z,1016.22
2019-01-21T07:32:44.460Z,1016.23
2019-01-21T07:33:44.385Z,1016.17
2019-01-21T07:34:44.376Z,1016.20
2019-01-21T07:35:44.455Z,1016.23
2019-01-21T07:36:44.365Z,1016.23
2019-01-21T07:37:44.373Z,1016.19
2019-01-21T07:38:44.335Z,1016.21
2019-01-21T07:39:44.324Z,1016.24
2019-01-21T07:40:44.326Z,1016.20
2019-01-21T07:41:44.368Z,1016.17
2019-01-21T07:42:44.300Z,1016.17
2019-01-21T07:43:44.360Z,1016.16
2019-01-21T07:44:44.288Z,1016.17
2019-01-21T07:45:44.255Z,1016.24
2019-01-21T07:46:44.261Z,1016.21
2019-01-21T07:47:44.306Z,1016.25
2019-01-21T07:48:44.291Z,1016.21
2019-01-21T07:49:44.225Z,1016.22
2019-01-21T07:50:44.233Z,1016.21
2019-01-21T07:51:44.256Z,1016.23
2019-01-21T07:52:44.198Z,1016.21
2019-01-21T07:53:44.292Z,1016.22
2019-01-21T07:54:44.209Z,1016.20
2019-01-21T07:55:44.200Z,1016.21
2019-01-21T07:56:44.204Z,1016.22
2019-01-21T07:57:44.171Z,1016.26
2019-01-21T07:58:44.125Z,1016.15
2019-01-21T07:59:44.212Z,1016.14
2019-01-21T08:00:44.103Z,1016.15
2019-01-21T08:01:44.129Z,1016.12
2019-01-21T08:02:44.076Z,1016.12
2019-01-21T08:03:44.065Z,1016.10
2019-01-21T08:04:44.060Z,1016.11
2019-01-21T08:05:44.191Z,1016.13
2019-01-21T08:06:45.334Z,1016.09
2019-01-21T08:07:44.055Z,1016.11
2019-01-21T08:08:44.015Z,1016.05
2019-01-21T08:09:43.997Z,1016.08
2019-01-21T08:10:43.987Z,1016.10
2019-01-21T08:11:44.023Z,1016.10
2019-01-21T08:12:43.986Z,1016.12
2019-01-21T08:13:43.989Z,1016.06
2019-01-21T08:14:43.951Z,1016.07
2019-01-21T08:15:43.938Z,1016.11
2019-01-21T08:16:43.969Z,1016.12
2019-01-21T08:17:43.925Z,1016.09
2019-01-21T08:18:43.963Z,1016.10
2019-01-21T08:19:43.900Z,1016.10
2019-01-21T08:20:43.880Z,1016.09
2019-01-21T08:21:43.874Z,1016.10
2019-01-21T08:22:43.862Z,1016.19
2019-01-21T08:23:43.865Z,1016.21
2019-01-21T08:24:43.915Z,1016.27
2019-01-21T08:25:43.882Z,1016.23
2019-01-21T08:26:43.823Z,1016.29
2019-01-21T08:27:43.868Z,1016.29
2019-01-21T08:28:43.803Z,1016.29
2019-01-21T08:29:43.802Z,1016.37
2019-01-21T08:30:43.818Z,1016.39
2019-01-21T08:31:43.770Z,1016.42
2019-01-21T08:32:43.758Z,1016.42
2019-01-21T08:33:43.745Z,1016.42
2019-01-21T08:34:43.734Z,1016.38
2019-01-21T08:35:43.765Z,1016.42
2019-01-21T08:36:43.710Z,1016.41
2019-01-21T08:37:43.716Z,1016.41
2019-01-21T08:38:43.704Z,1016.39
2019-01-21T08:39:43.678Z,1016.41
2019-01-21T08:40:43.671Z,1016.34
2019-01-21T08:41:44.868Z,1016.33
2019-01-21T08:42:43.654Z,1016.36
2019-01-21T08:43:43.636Z,1016.36
2019-01-21T08:44:43.650Z,1016.39
2019-01-21T08:45:43.618Z,1016.41
2019-01-21T08:46:43.600Z,1016.39
2019-01-21T08:47:43.633Z,1016.41
2019-01-21T08:48:43.663Z,1016.36
2019-01-21T08:49:43.580Z,1016.37
2019-01-21T08:50:43.593Z,1016.36
2019-01-21T08:51:43.581Z,1016.39
2019-01-21T08:52:43.541Z,1016.36
2019-01-21T08:53:43.552Z,1016.34
2019-01-21T08:54:43.560Z,1016.36
2019-01-21T08:55:43.523Z,1016.31
2019-01-21T08:56:43.531Z,1016.33
2019-01-21T08:57:43.505Z,1016.36
2019-01-21T08:58:43.485Z,1016.38
2019-01-21T08:59:43.462Z,1016.41
2019-01-21T09:00:43.549Z,1016.49
2019-01-21T09:01:43.443Z,1016.47
2019-01-21T09:02:43.447Z,1016.51
2019-01-21T09:03:43.430Z,1016.52
2019-01-21T09:04:43.455Z,1016.55
2019-01-21T09:05:43.453Z,1016.56
2019-01-21T09:06:43.425Z,1016.55
2019-01-21T09:07:43.398Z,1016.54
2019-01-21T09:08:43.371Z,1016.54
2019-01-21T09:09:43.361Z,1016.51
2019-01-21T09:10:43.431Z,1016.55
2019-01-21T09:11:43.332Z,1016.54
2019-01-21T09:12:43.349Z,1016.49
2019-01-21T09:13:43.359Z,1016.48
2019-01-21T09:14:43.307Z,1016.49
2019-01-21T09:15:43.293Z,1016.49
2019-01-21T09:16:43.298Z,1016.53
2019-01-21T09:17:43.328Z,1016.58
2019-01-21T09:18:43.269Z,1016.57
2019-01-21T09:19:43.294Z,1016.59
2019-01-21T09:20:43.251Z,1016.58
2019-01-21T09:21:43.277Z,1016.59
2019-01-21T09:22:43.224Z,1016.57
2019-01-21T09:23:43.220Z,1016.63
2019-01-21T09:24:43.229Z,1016.62
2019-01-21T09:25:43.191Z,1016.69
2019-01-21T09:26:43.186Z,1016.67
2019-01-21T09:27:43.205Z,1016.66
2019-01-21T09:28:43.151Z,1016.69
2019-01-21T09:29:43.159Z,1016.64
2019-01-21T09:30:43.135Z,1016.62
2019-01-21T09:31:43.124Z,1016.58
2019-01-21T09:32:43.119Z,1016.59
2019-01-21T09:33:43.154Z,1016.60
2019-01-21T09:34:43.114Z,1016.60
2019-01-21T09:35:43.078Z,1016.60
2019-01-21T09:36:43.095Z,1016.62
2019-01-21T09:37:43.084Z,1016.63
2019-01-21T09:38:43.051Z,1016.58
2019-01-21T09:39:43.285Z,1016.64
2019-01-21T09:40:43.027Z,1016.69
2019-01-21T09:41:43.557Z,1016.69
2019-01-21T09:42:43.052Z,1016.69
2019-01-21T09:43:42.989Z,1016.76
2019-01-21T09:44:42.977Z,1016.76
2019-01-21T09:45:42.982Z,1016.77
2019-01-21T09:46:42.973Z,1016.84
2019-01-21T09:47:42.945Z,1016.85
2019-01-21T09:48:42.986Z,1016.84
2019-01-21T09:49:43.793Z,1016.86
2019-01-21T09:50:42.921Z,1016.84
2019-01-21T09:51:42.900Z,1016.83
2019-01-21T09:52:43.066Z,1016.86
2019-01-21T09:53:42.888Z,1016.89
2019-01-21T09:54:42.939Z,1016.87
2019-01-21T09:55:42.879Z,1016.86
2019-01-21T09:56:42.854Z,1016.88
2019-01-21T09:57:42.903Z,1016.88
2019-01-21T09:58:42.898Z,1016.86
2019-01-21T09:59:42.822Z,1016.87
2019-01-21T10:00:42.833Z,1016.85
2019-01-21T10:01:42.791Z,1016.81
2019-01-21T10:02:42.872Z,1016.86
2019-01-21T10:03:42.847Z,1016.83
2019-01-21T10:04:42.820Z,1016.87
2019-01-21T10:05:42.788Z,1016.81
2019-01-21T10:06:42.804Z,1016.82
2019-01-21T10:07:42.726Z,1016.83
2019-01-21T10:08:42.763Z,1016.74
2019-01-21T10:09:42.718Z,1016.79
2019-01-21T10:10:42.700Z,1016.78
2019-01-21T10:11:42.731Z,1016.74
2019-01-21T10:12:42.674Z,1016.72
2019-01-21T10:13:42.663Z,1016.66
2019-01-21T10:14:42.759Z,1016.70
2019-01-21T10:15:42.636Z,1016.63
2019-01-21T10:16:42.671Z,1016.64
2019-01-21T10:17:43.131Z,1016.60
2019-01-21T10:18:42.649Z,1016.55
2019-01-21T10:19:42.619Z,1016.51
2019-01-21T10:20:42.598Z,1016.53
2019-01-21T10:21:42.647Z,1016.51
2019-01-21T10:22:42.606Z,1016.49
2019-01-21T10:23:42.552Z,1016.51
2019-01-21T10:24:42.621Z,1016.48
2019-01-21T10:25:42.530Z,1016.39
2019-01-21T10:26:42.599Z,1016.42
2019-01-21T10:27:42.732Z,1016.42
2019-01-21T10:28:42.543Z,1016.43
2019-01-21T10:29:43.140Z,1016.37
2019-01-21T10:30:42.480Z,1016.36
2019-01-21T10:31:42.471Z,1016.40
2019-01-21T10:32:43.225Z,1016.38
2019-01-21T10:33:42.442Z,1016.37
2019-01-21T10:34:42.690Z,1016.31
2019-01-21T10:35:42.484Z,1016.28
2019-01-21T10:36:42.472Z,1016.32
2019-01-21T10:37:42.400Z,1016.29
2019-01-21T10:38:42.413Z,1016.28
2019-01-21T10:39:42.379Z,1016.31
2019-01-21T10:40:42.376Z,1016.25
2019-01-21T10:41:42.682Z,1016.28
2019-01-21T10:42:42.359Z,1016.19
2019-01-21T10:43:42.341Z,1016.17
2019-01-21T10:44:42.349Z,1016.15
2019-01-21T10:45:43.154Z,1016.14
2019-01-21T10:46:42.404Z,1016.10
2019-01-21T10:47:42.315Z,1016.14
2019-01-21T10:48:42.286Z,1016.15
2019-01-21T10:49:42.297Z,1016.11
2019-01-21T10:50:42.278Z,1016.13
2019-01-21T10:51:42.248Z,1016.08
2019-01-21T10:52:42.326Z,1016.07
2019-01-21T10:53:42.245Z,1016.06
2019-01-21T10:54:42.260Z,1016.03
2019-01-21T10:55:42.221Z,1016.06
2019-01-21T10:56:42.220Z,1016.05
2019-01-21T10:57:42.193Z,1016.08
2019-01-21T10:58:42.312Z,1016.08
2019-01-21T10:59:42.204Z,1016.05
2019-01-21T11:00:42.163Z,1016.12
2019-01-21T11:01:42.189Z,1016.09
2019-01-21T11:02:42.273Z,1016.09
2019-01-21T11:03:42.212Z,1016.10
2019-01-21T11:04:42.114Z,1016.11
2019-01-21T11:05:42.097Z,1016.07
2019-01-21T11:06:42.093Z,1016.04
2019-01-21T11:07:42.082Z,1016.04
2019-01-21T11:08:42.069Z,1016.00
2019-01-21T11:09:42.092Z,1015.94
2019-01-21T11:10:42.063Z,1016.01
2019-01-21T11:11:42.040Z,1016.01
2019-01-21T11:12:42.045Z,1016.02
2019-01-21T11:13:42.015Z,1016.01
2019-01-21T11:14:42.004Z,1015.97
2019-01-21T11:15:42.032Z,1016.01
2019-01-21T11:16:41.995Z,1015.97
2019-01-21T11:17:41.964Z,1015.96
2019-01-21T11:18:42.352Z,1015.96
2019-01-21T11:19:44.133Z,1015.92
2019-01-21T11:20:45.279Z,1015.96
2019-01-21T11:21:42.905Z,1015.99
2019-01-21T11:22:42.746Z,1015.94
2019-01-21T11:23:42.068Z,1015.94
2019-01-21T11:24:41.913Z,1015.91
2019-01-21T11:25:41.892Z,1015.91
2019-01-21T11:26:41.884Z,1015.86
2019-01-21T11:27:41.919Z,1015.81
2019-01-21T11:28:42.552Z,1015.80
2019-01-21T11:29:41.881Z,1015.80
2019-01-21T11:30:41.835Z,1015.78
2019-01-21T11:31:41.907Z,1015.80
2019-01-21T11:32:41.818Z,1015.80
2019-01-21T11:33:41.844Z,1015.81
2019-01-21T11:34:41.887Z,1015.75
2019-01-21T11:35:41.815Z,1015.74
2019-01-21T11:36:41.756Z,1015.71
2019-01-21T11:37:41.885Z,1015.62
2019-01-21T11:38:41.744Z,1015.58
2019-01-21T11:39:41.723Z,1015.56
2019-01-21T11:40:42.204Z,1015.51
2019-01-21T11:41:41.706Z,1015.58
2019-01-21T11:42:41.692Z,1015.55
2019-01-21T11:43:41.686Z,1015.57
2019-01-21T11:44:41.794Z,1015.54
2019-01-21T11:45:41.662Z,1015.57
2019-01-21T11:46:41.677Z,1015.59
2019-01-21T11:47:42.619Z,1015.55
2019-01-21T11:48:43.165Z,1015.58
2019-01-21T11:49:41.643Z,1015.50
2019-01-21T11:50:41.722Z,1015.50
2019-01-21T11:51:41.636Z,1015.48
2019-01-21T11:52:41.589Z,1015.41
2019-01-21T11:53:41.626Z,1015.40
2019-01-21T11:54:41.577Z,1015.36
2019-01-21T11:55:41.598Z,1015.36
2019-01-21T11:56:41.567Z,1015.36
2019-01-21T11:57:41.552Z,1015.35
2019-01-21T11:58:41.524Z,1015.34
2019-01-21T11:59:41.557Z,1015.33
2019-01-21T12:00:41.578Z,1015.32
2019-01-21T12:01:41.530Z,1015.32
2019-01-21T12:02:41.481Z,1015.33
2019-01-21T12:03:42.160Z,1015.33
2019-01-21T12:04:41.454Z,1015.29
2019-01-21T12:05:41.460Z,1015.29